Welcome to our website!


4 days ago
IS-28M2/GR

If your adrenalin level is to low, you can visit our airfield 🙂

1 week ago
ALB Aviation Training

We are proud that our local flightschool got some more training program approvals. Like this we'll be able to renew and revalidate glider licences and do aerobatic training on our club gliders as ... See more

How did you spend your Sunday afternoon?
Our looked just like this: coffee, cake and looking on our new training courses:
- Light Airplane Pilot License - LAPL(A)
- Private Pilot License (Airplane) ... See more

Fuel prices:

Avgas 100LL – 2,00€

Next events:

11th to 26th July 2020

Gliding Camp with international guests

Weather at Oradea Airport (LROD):

LROD 070100Z AUTO 11006KT 9999 NCD 19/15 Q1018

TAF LROD 312030Z 3121/0203 CNL

Webcam at the clubhouse